sensor_id;sensor_type;location;lat;lon;timestamp;temperature;humidity
75821;DHT22;64454;51.984;9.838;2023-02-11T00:01:49;7.30;1.00
75821;DHT22;64454;51.984;9.838;2023-02-11T00:04:16;7.40;1.00
75821;DHT22;64454;51.984;9.838;2023-02-11T00:06:42;7.40;1.00
75821;DHT22;64454;51.984;9.838;2023-02-11T00:09:11;7.40;1.00
75821;DHT22;64454;51.984;9.838;2023-02-11T00:11:38;7.60;1.00
75821;DHT22;64454;51.984;9.838;2023-02-11T00:14:05;7.50;1.00
75821;DHT22;64454;51.984;9.838;2023-02-11T00:16:33;7.50;1.00
75821;DHT22;64454;51.984;9.838;2023-02-11T00:19:02;7.50;1.00
75821;DHT22;64454;51.984;9.838;2023-02-11T00:21:30;7.50;1.00
75821;DHT22;64454;51.984;9.838;2023-02-11T00:23:59;7.50;1.00
75821;DHT22;64454;51.984;9.838;2023-02-11T00:26:29;7.60;1.00
75821;DHT22;64454;51.984;9.838;2023-02-11T00:28:58;7.60;1.00
75821;DHT22;64454;51.984;9.838;2023-02-11T00:31:26;7.70;1.00
75821;DHT22;64454;51.984;9.838;2023-02-11T00:33:53;7.80;1.00
75821;DHT22;64454;51.984;9.838;2023-02-11T00:36:22;7.80;1.00
75821;DHT22;64454;51.984;9.838;2023-02-11T00:38:52;7.80;1.00
75821;DHT22;64454;51.984;9.838;2023-02-11T00:41:20;7.80;1.00
75821;DHT22;64454;51.984;9.838;2023-02-11T00:43:50;7.90;1.00
75821;DHT22;64454;51.984;9.838;2023-02-11T00:46:19;7.90;1.00
75821;DHT22;64454;51.984;9.838;2023-02-11T00:48:46;8.00;1.00
75821;DHT22;64454;51.984;9.838;2023-02-11T00:51:14;8.00;1.00
75821;DHT22;64454;51.984;9.838;2023-02-11T00:53:40;8.00;1.00
75821;DHT22;64454;51.984;9.838;2023-02-11T00:56:07;8.10;1.00
75821;DHT22;64454;51.984;9.838;2023-02-11T00:58:35;8.10;1.00
75821;DHT22;64454;51.984;9.838;2023-02-11T01:01:03;8.20;1.00
75821;DHT22;64454;51.984;9.838;2023-02-11T01:03:30;8.20;1.00
75821;DHT22;64454;51.984;9.838;2023-02-11T01:05:57;8.20;1.00
75821;DHT22;64454;51.984;9.838;2023-02-11T01:08:24;8.20;1.00
75821;DHT22;64454;51.984;9.838;2023-02-11T01:10:56;8.20;1.00
75821;DHT22;64454;51.984;9.838;2023-02-11T01:13:24;8.20;1.00
75821;DHT22;64454;51.984;9.838;2023-02-11T01:15:52;8.30;1.00
75821;DHT22;64454;51.984;9.838;2023-02-11T01:18:22;8.30;1.00
75821;DHT22;64454;51.984;9.838;2023-02-11T01:20:50;8.20;1.00
75821;DHT22;64454;51.984;9.838;2023-02-11T01:23:17;8.10;1.00
75821;DHT22;64454;51.984;9.838;2023-02-11T01:25:44;8.00;1.00
75821;DHT22;64454;51.984;9.838;2023-02-11T01:28:15;8.10;1.00
75821;DHT22;64454;51.984;9.838;2023-02-11T01:30:43;8.20;1.00
75821;DHT22;64454;51.984;9.838;2023-02-11T01:33:10;8.10;1.00
75821;DHT22;64454;51.984;9.838;2023-02-11T01:35:39;8.20;1.00
75821;DHT22;64454;51.984;9.838;2023-02-11T01:38:06;8.20;1.00
75821;DHT22;64454;51.984;9.838;2023-02-11T01:40:33;8.20;1.00
75821;DHT22;64454;51.984;9.838;2023-02-11T01:43:00;8.30;1.00
75821;DHT22;64454;51.984;9.838;2023-02-11T01:45:58;8.30;1.00
75821;DHT22;64454;51.984;9.838;2023-02-11T01:48:29;8.30;1.00
75821;DHT22;64454;51.984;9.838;2023-02-11T01:51:06;8.30;1.00
75821;DHT22;64454;51.984;9.838;2023-02-11T01:53:37;8.30;1.00
75821;DHT22;64454;51.984;9.838;2023-02-11T01:56:24;8.20;1.00
75821;DHT22;64454;51.984;9.838;2023-02-11T01:59:15;8.10;1.00
75821;DHT22;64454;51.984;9.838;2023-02-11T02:01:49;8.30;1.00
75821;DHT22;64454;51.984;9.838;2023-02-11T02:04:22;8.10;3.90
75821;DHT22;64454;51.984;9.838;2023-02-11T02:07:00;8.00;9.50
75821;DHT22;64454;51.984;9.838;2023-02-11T02:09:36;8.00;17.30
75821;DHT22;64454;51.984;9.838;2023-02-11T02:12:05;8.10;22.10
75821;DHT22;64454;51.984;9.838;2023-02-11T02:14:32;8.30;23.50
75821;DHT22;64454;51.984;9.838;2023-02-11T02:16:59;8.20;20.30
75821;DHT22;64454;51.984;9.838;2023-02-11T02:19:53;8.10;17.50
75821;DHT22;64454;51.984;9.838;2023-02-11T02:26:06;8.10;23.20
75821;DHT22;64454;51.984;9.838;2023-02-11T02:29:10;8.00;25.50
75821;DHT22;64454;51.984;9.838;2023-02-11T02:35:23;8.00;30.50
75821;DHT22;64454;51.984;9.838;2023-02-11T02:37:58;7.90;29.60
75821;DHT22;64454;51.984;9.838;2023-02-11T02:40:35;7.90;34.50
75821;DHT22;64454;51.984;9.838;2023-02-11T02:43:09;7.90;34.70
75821;DHT22;64454;51.984;9.838;2023-02-11T02:45:37;7.90;36.40
75821;DHT22;64454;51.984;9.838;2023-02-11T02:48:05;8.00;43.70
75821;DHT22;64454;51.984;9.838;2023-02-11T02:50:34;7.80;40.90
75821;DHT22;64454;51.984;9.838;2023-02-11T02:53:13;7.80;54.00
75821;DHT22;64454;51.984;9.838;2023-02-11T02:55:55;7.70;62.60
75821;DHT22;64454;51.984;9.838;2023-02-11T02:58:42;7.70;77.40
75821;DHT22;64454;51.984;9.838;2023-02-11T03:01:27;7.90;75.40
75821;DHT22;64454;51.984;9.838;2023-02-11T03:04:10;7.90;64.50
75821;DHT22;64454;51.984;9.838;2023-02-11T03:06:48;7.90;66.30
75821;DHT22;64454;51.984;9.838;2023-02-11T03:09:23;7.90;66.60
75821;DHT22;64454;51.984;9.838;2023-02-11T03:11:53;8.00;67.70
75821;DHT22;64454;51.984;9.838;2023-02-11T03:14:21;8.00;61.90
75821;DHT22;64454;51.984;9.838;2023-02-11T03:16:53;8.20;65.60
75821;DHT22;64454;51.984;9.838;2023-02-11T03:19:27;8.00;61.60
75821;DHT22;64454;51.984;9.838;2023-02-11T03:21:56;7.90;67.90
75821;DHT22;64454;51.984;9.838;2023-02-11T03:24:28;7.80;78.20
75821;DHT22;64454;51.984;9.838;2023-02-11T03:27:02;7.90;83.40
75821;DHT22;64454;51.984;9.838;2023-02-11T03:29:36;7.90;80.00
75821;DHT22;64454;51.984;9.838;2023-02-11T03:32:10;7.80;87.30
75821;DHT22;64454;51.984;9.838;2023-02-11T03:34:45;7.80;99.90
75821;DHT22;64454;51.984;9.838;2023-02-11T03:37:17;7.70;99.90
75821;DHT22;64454;51.984;9.838;2023-02-11T03:39:51;7.80;99.90
75821;DHT22;64454;51.984;9.838;2023-02-11T03:42:22;7.70;99.90
75821;DHT22;64454;51.984;9.838;2023-02-11T03:44:58;7.70;99.90
75821;DHT22;64454;51.984;9.838;2023-02-11T03:47:31;7.70;99.90
75821;DHT22;64454;51.984;9.838;2023-02-11T03:50:05;7.70;99.90
75821;DHT22;64454;51.984;9.838;2023-02-11T03:52:35;7.70;99.90
75821;DHT22;64454;51.984;9.838;2023-02-11T03:55:08;7.70;99.90
75821;DHT22;64454;51.984;9.838;2023-02-11T03:57:38;7.80;99.90
75821;DHT22;64454;51.984;9.838;2023-02-11T04:00:06;7.80;99.90
75821;DHT22;64454;51.984;9.838;2023-02-11T04:02:36;7.80;99.90
75821;DHT22;64454;51.984;9.838;2023-02-11T04:05:07;7.80;99.90
75821;DHT22;64454;51.984;9.838;2023-02-11T04:07:35;7.80;99.90
75821;DHT22;64454;51.984;9.838;2023-02-11T04:10:02;7.90;99.90
75821;DHT22;64454;51.984;9.838;2023-02-11T04:12:29;7.80;99.90
75821;DHT22;64454;51.984;9.838;2023-02-11T04:14:56;7.80;99.90
75821;DHT22;64454;51.984;9.838;2023-02-11T04:17:22;7.80;99.90
75821;DHT22;64454;51.984;9.838;2023-02-11T04:19:49;7.80;99.90
75821;DHT22;64454;51.984;9.838;2023-02-11T04:22:17;7.70;99.90
75821;DHT22;64454;51.984;9.838;2023-02-11T04:24:44;7.70;99.90
75821;DHT22;64454;51.984;9.838;2023-02-11T04:27:11;7.70;99.90
75821;DHT22;64454;51.984;9.838;2023-02-11T04:29:37;7.70;99.90
75821;DHT22;64454;51.984;9.838;2023-02-11T04:32:04;7.70;99.90
75821;DHT22;64454;51.984;9.838;2023-02-11T04:34:31;7.80;99.90
75821;DHT22;64454;51.984;9.838;2023-02-11T04:36:58;7.60;99.90
75821;DHT22;64454;51.984;9.838;2023-02-11T04:39:26;7.60;99.90
75821;DHT22;64454;51.984;9.838;2023-02-11T04:41:53;7.60;99.90
75821;DHT22;64454;51.984;9.838;2023-02-11T04:44:19;7.60;99.90
75821;DHT22;64454;51.984;9.838;2023-02-11T04:46:47;7.50;99.90
75821;DHT22;64454;51.984;9.838;2023-02-11T04:49:14;7.50;99.90
75821;DHT22;64454;51.984;9.838;2023-02-11T04:51:43;7.60;99.90
75821;DHT22;64454;51.984;9.838;2023-02-11T04:54:11;7.50;99.90
75821;DHT22;64454;51.984;9.838;2023-02-11T04:56:39;7.50;99.90
75821;DHT22;64454;51.984;9.838;2023-02-11T04:59:06;7.60;99.90
75821;DHT22;64454;51.984;9.838;2023-02-11T05:01:33;7.50;99.90
75821;DHT22;64454;51.984;9.838;2023-02-11T05:04:00;7.60;99.90
75821;DHT22;64454;51.984;9.838;2023-02-11T05:06:27;7.60;99.90
75821;DHT22;64454;51.984;9.838;2023-02-11T05:08:54;7.70;99.90
75821;DHT22;64454;51.984;9.838;2023-02-11T05:11:22;7.70;99.90
75821;DHT22;64454;51.984;9.838;2023-02-11T05:13:51;7.70;99.90
75821;DHT22;64454;51.984;9.838;2023-02-11T05:16:19;7.70;99.90
75821;DHT22;64454;51.984;9.838;2023-02-11T05:18:46;7.80;99.90
75821;DHT22;64454;51.984;9.838;2023-02-11T05:21:16;7.70;99.90
75821;DHT22;64454;51.984;9.838;2023-02-11T05:23:44;7.80;99.90
75821;DHT22;64454;51.984;9.838;2023-02-11T05:26:11;7.90;99.90
75821;DHT22;64454;51.984;9.838;2023-02-11T05:28:40;7.80;99.90
75821;DHT22;64454;51.984;9.838;2023-02-11T05:31:09;7.90;99.90
75821;DHT22;64454;51.984;9.838;2023-02-11T05:33:36;7.90;99.90
75821;DHT22;64454;51.984;9.838;2023-02-11T05:36:05;7.90;99.90
75821;DHT22;64454;51.984;9.838;2023-02-11T05:38:34;7.90;99.90
75821;DHT22;64454;51.984;9.838;2023-02-11T05:41:01;7.90;99.90
75821;DHT22;64454;51.984;9.838;2023-02-11T05:43:29;7.90;99.90
75821;DHT22;64454;51.984;9.838;2023-02-11T05:45:56;7.90;99.90
75821;DHT22;64454;51.984;9.838;2023-02-11T05:48:24;7.90;99.90
75821;DHT22;64454;51.984;9.838;2023-02-11T05:50:51;8.00;99.90
75821;DHT22;64454;51.984;9.838;2023-02-11T05:53:18;8.00;99.90
75821;DHT22;64454;51.984;9.838;2023-02-11T05:55:45;8.00;99.90
75821;DHT22;64454;51.984;9.838;2023-02-11T05:58:12;8.10;99.90
75821;DHT22;64454;51.984;9.838;2023-02-11T06:00:39;8.00;99.90
75821;DHT22;64454;51.984;9.838;2023-02-11T06:03:05;8.10;99.90
75821;DHT22;64454;51.984;9.838;2023-02-11T06:05:52;8.10;99.90
75821;DHT22;64454;51.984;9.838;2023-02-11T06:08:39;8.20;99.90
75821;DHT22;64454;51.984;9.838;2023-02-11T06:11:27;8.20;99.90
75821;DHT22;64454;51.984;9.838;2023-02-11T06:14:14;8.20;99.90
75821;DHT22;64454;51.984;9.838;2023-02-11T06:16:55;8.00;99.90
75821;DHT22;64454;51.984;9.838;2023-02-11T06:19:21;8.10;99.90
75821;DHT22;64454;51.984;9.838;2023-02-11T06:21:49;8.10;99.90
75821;DHT22;64454;51.984;9.838;2023-02-11T06:24:16;8.20;99.90
75821;DHT22;64454;51.984;9.838;2023-02-11T06:26:43;8.10;99.90
75821;DHT22;64454;51.984;9.838;2023-02-11T06:29:10;8.10;99.90
75821;DHT22;64454;51.984;9.838;2023-02-11T06:31:37;8.10;99.90
75821;DHT22;64454;51.984;9.838;2023-02-11T06:34:04;8.10;99.90
75821;DHT22;64454;51.984;9.838;2023-02-11T06:36:31;8.00;99.90
75821;DHT22;64454;51.984;9.838;2023-02-11T06:38:59;7.90;99.90
75821;DHT22;64454;51.984;9.838;2023-02-11T06:41:26;8.00;99.90
75821;DHT22;64454;51.984;9.838;2023-02-11T06:43:53;8.00;99.90
75821;DHT22;64454;51.984;9.838;2023-02-11T06:46:20;8.00;99.90
75821;DHT22;64454;51.984;9.838;2023-02-11T06:48:47;7.90;99.90
75821;DHT22;64454;51.984;9.838;2023-02-11T06:51:14;8.00;99.90
75821;DHT22;64454;51.984;9.838;2023-02-11T06:53:44;8.00;99.90
75821;DHT22;64454;51.984;9.838;2023-02-11T06:56:15;8.00;99.90
75821;DHT22;64454;51.984;9.838;2023-02-11T06:58:43;8.00;99.90
75821;DHT22;64454;51.984;9.838;2023-02-11T07:01:12;8.00;99.90
75821;DHT22;64454;51.984;9.838;2023-02-11T07:03:41;8.00;99.90
75821;DHT22;64454;51.984;9.838;2023-02-11T07:06:11;7.90;99.90
75821;DHT22;64454;51.984;9.838;2023-02-11T07:08:40;7.80;99.90
75821;DHT22;64454;51.984;9.838;2023-02-11T07:11:10;7.90;99.90
75821;DHT22;64454;51.984;9.838;2023-02-11T07:13:40;7.90;99.90
75821;DHT22;64454;51.984;9.838;2023-02-11T07:16:09;8.00;99.90
75821;DHT22;64454;51.984;9.838;2023-02-11T07:18:38;8.00;99.90
75821;DHT22;64454;51.984;9.838;2023-02-11T07:21:06;8.00;99.90
75821;DHT22;64454;51.984;9.838;2023-02-11T07:23:34;8.10;99.90
75821;DHT22;64454;51.984;9.838;2023-02-11T07:26:02;8.10;99.90
75821;DHT22;64454;51.984;9.838;2023-02-11T07:28:32;8.20;99.90
75821;DHT22;64454;51.984;9.838;2023-02-11T07:31:05;8.20;99.90
75821;DHT22;64454;51.984;9.838;2023-02-11T07:33:32;8.20;99.90
75821;DHT22;64454;51.984;9.838;2023-02-11T07:35:59;8.20;99.90
75821;DHT22;64454;51.984;9.838;2023-02-11T07:38:26;8.20;99.90
75821;DHT22;64454;51.984;9.838;2023-02-11T07:40:53;8.20;99.90
75821;DHT22;64454;51.984;9.838;2023-02-11T07:43:20;8.20;99.90
75821;DHT22;64454;51.984;9.838;2023-02-11T07:45:48;8.20;99.90
75821;DHT22;64454;51.984;9.838;2023-02-11T07:48:15;8.10;99.90
75821;DHT22;64454;51.984;9.838;2023-02-11T07:50:41;8.10;99.90
75821;DHT22;64454;51.984;9.838;2023-02-11T07:53:08;8.10;99.90
75821;DHT22;64454;51.984;9.838;2023-02-11T07:55:35;8.20;99.90
75821;DHT22;64454;51.984;9.838;2023-02-11T07:58:02;8.20;99.90
75821;DHT22;64454;51.984;9.838;2023-02-11T08:00:29;8.20;99.90
75821;DHT22;64454;51.984;9.838;2023-02-11T08:02:57;8.30;99.90
75821;DHT22;64454;51.984;9.838;2023-02-11T08:05:24;8.30;99.90
75821;DHT22;64454;51.984;9.838;2023-02-11T08:07:51;8.20;99.90
75821;DHT22;64454;51.984;9.838;2023-02-11T08:10:18;8.20;99.90
75821;DHT22;64454;51.984;9.838;2023-02-11T08:12:45;8.20;99.90
75821;DHT22;64454;51.984;9.838;2023-02-11T08:15:12;8.10;99.90
75821;DHT22;64454;51.984;9.838;2023-02-11T08:17:39;8.10;99.90
75821;DHT22;64454;51.984;9.838;2023-02-11T08:20:08;8.10;99.90
75821;DHT22;64454;51.984;9.838;2023-02-11T08:22:35;8.20;99.90
75821;DHT22;64454;51.984;9.838;2023-02-11T08:25:02;8.20;99.90
75821;DHT22;64454;51.984;9.838;2023-02-11T08:27:30;8.30;99.90
75821;DHT22;64454;51.984;9.838;2023-02-11T08:29:56;8.30;99.90
75821;DHT22;64454;51.984;9.838;2023-02-11T08:32:24;8.30;99.90
75821;DHT22;64454;51.984;9.838;2023-02-11T08:34:52;8.40;99.90
75821;DHT22;64454;51.984;9.838;2023-02-11T08:37:20;8.40;99.90
75821;DHT22;64454;51.984;9.838;2023-02-11T08:39:47;8.40;99.90
75821;DHT22;64454;51.984;9.838;2023-02-11T08:42:14;8.50;99.90
75821;DHT22;64454;51.984;9.838;2023-02-11T08:44:41;8.40;99.90
75821;DHT22;64454;51.984;9.838;2023-02-11T08:47:08;8.40;99.90
75821;DHT22;64454;51.984;9.838;2023-02-11T08:49:35;8.40;99.90
75821;DHT22;64454;51.984;9.838;2023-02-11T08:52:03;8.40;99.90
75821;DHT22;64454;51.984;9.838;2023-02-11T08:54:31;8.50;99.90
75821;DHT22;64454;51.984;9.838;2023-02-11T08:56:58;8.50;99.90
75821;DHT22;64454;51.984;9.838;2023-02-11T08:59:26;8.50;99.90
75821;DHT22;64454;51.984;9.838;2023-02-11T09:01:53;8.40;99.90
75821;DHT22;64454;51.984;9.838;2023-02-11T09:04:20;8.50;99.90
75821;DHT22;64454;51.984;9.838;2023-02-11T09:06:47;8.40;99.90
75821;DHT22;64454;51.984;9.838;2023-02-11T09:09:15;8.40;99.90
75821;DHT22;64454;51.984;9.838;2023-02-11T09:11:44;8.50;99.90
75821;DHT22;64454;51.984;9.838;2023-02-11T09:14:16;8.40;99.90
75821;DHT22;64454;51.984;9.838;2023-02-11T09:16:45;8.40;99.90
75821;DHT22;64454;51.984;9.838;2023-02-11T09:19:12;8.50;99.90
75821;DHT22;64454;51.984;9.838;2023-02-11T09:21:39;8.50;99.90
75821;DHT22;64454;51.984;9.838;2023-02-11T09:24:06;8.60;99.90
75821;DHT22;64454;51.984;9.838;2023-02-11T09:26:34;8.70;99.90
75821;DHT22;64454;51.984;9.838;2023-02-11T09:29:03;8.70;99.90
75821;DHT22;64454;51.984;9.838;2023-02-11T09:31:32;8.60;99.90
75821;DHT22;64454;51.984;9.838;2023-02-11T09:34:03;8.50;99.90
75821;DHT22;64454;51.984;9.838;2023-02-11T09:36:33;8.50;99.90
75821;DHT22;64454;51.984;9.838;2023-02-11T09:39:03;8.50;99.90
75821;DHT22;64454;51.984;9.838;2023-02-11T09:44:34;8.80;99.90
75821;DHT22;64454;51.984;9.838;2023-02-11T09:47:04;8.90;99.90
75821;DHT22;64454;51.984;9.838;2023-02-11T09:49:38;8.90;99.90
75821;DHT22;64454;51.984;9.838;2023-02-11T09:52:17;8.90;99.90
75821;DHT22;64454;51.984;9.838;2023-02-11T09:54:54;8.80;99.90
75821;DHT22;64454;51.984;9.838;2023-02-11T09:57:25;8.80;99.90
75821;DHT22;64454;51.984;9.838;2023-02-11T09:59:58;8.90;99.90
75821;DHT22;64454;51.984;9.838;2023-02-11T10:02:30;8.80;99.90
75821;DHT22;64454;51.984;9.838;2023-02-11T10:05:23;8.90;99.90
75821;DHT22;64454;51.984;9.838;2023-02-11T10:08:04;8.90;99.90
75821;DHT22;64454;51.984;9.838;2023-02-11T10:10:46;8.90;99.90
75821;DHT22;64454;51.984;9.838;2023-02-11T10:13:35;9.00;99.90
75821;DHT22;64454;51.984;9.838;2023-02-11T10:16:27;9.10;99.90
75821;DHT22;64454;51.984;9.838;2023-02-11T10:19:24;9.00;99.90
75821;DHT22;64454;51.984;9.838;2023-02-11T10:22:05;9.00;99.90
75821;DHT22;64454;51.984;9.838;2023-02-11T10:24:38;9.10;99.90
75821;DHT22;64454;51.984;9.838;2023-02-11T10:27:14;9.00;99.90
75821;DHT22;64454;51.984;9.838;2023-02-11T10:29:48;9.10;99.90
75821;DHT22;64454;51.984;9.838;2023-02-11T10:32:34;9.00;99.90
75821;DHT22;64454;51.984;9.838;2023-02-11T10:35:12;9.10;99.90
75821;DHT22;64454;51.984;9.838;2023-02-11T10:37:42;9.10;99.90
75821;DHT22;64454;51.984;9.838;2023-02-11T10:40:12;9.00;99.90
75821;DHT22;64454;51.984;9.838;2023-02-11T10:42:41;9.00;99.90
75821;DHT22;64454;51.984;9.838;2023-02-11T10:45:18;9.00;99.90
75821;DHT22;64454;51.984;9.838;2023-02-11T10:47:51;9.00;99.90
75821;DHT22;64454;51.984;9.838;2023-02-11T10:50:23;9.00;99.90
75821;DHT22;64454;51.984;9.838;2023-02-11T10:52:51;9.10;99.90
75821;DHT22;64454;51.984;9.838;2023-02-11T10:55:19;9.10;99.90
75821;DHT22;64454;51.984;9.838;2023-02-11T10:57:54;9.10;99.90
75821;DHT22;64454;51.984;9.838;2023-02-11T11:00:30;9.00;99.90
75821;DHT22;64454;51.984;9.838;2023-02-11T11:03:04;8.90;99.90
75821;DHT22;64454;51.984;9.838;2023-02-11T11:05:35;8.90;99.90
75821;DHT22;64454;51.984;9.838;2023-02-11T11:08:05;8.90;99.90
75821;DHT22;64454;51.984;9.838;2023-02-11T11:10:37;8.90;99.90
75821;DHT22;64454;51.984;9.838;2023-02-11T11:13:27;9.00;99.90
75821;DHT22;64454;51.984;9.838;2023-02-11T11:16:17;8.90;99.90
75821;DHT22;64454;51.984;9.838;2023-02-11T11:18:48;8.90;99.90
75821;DHT22;64454;51.984;9.838;2023-02-11T11:21:20;9.00;99.90
75821;DHT22;64454;51.984;9.838;2023-02-11T11:23:56;8.90;99.90
75821;DHT22;64454;51.984;9.838;2023-02-11T11:26:26;8.90;99.90
75821;DHT22;64454;51.984;9.838;2023-02-11T11:28:57;9.00;99.90
75821;DHT22;64454;51.984;9.838;2023-02-11T11:31:29;9.00;99.90
75821;DHT22;64454;51.984;9.838;2023-02-11T11:34:02;9.00;99.90
75821;DHT22;64454;51.984;9.838;2023-02-11T11:36:40;9.10;99.90
75821;DHT22;64454;51.984;9.838;2023-02-11T11:39:17;9.10;99.90
75821;DHT22;64454;51.984;9.838;2023-02-11T11:41:50;9.10;99.90
75821;DHT22;64454;51.984;9.838;2023-02-11T11:44:27;9.20;99.90
75821;DHT22;64454;51.984;9.838;2023-02-11T11:47:19;9.10;99.90
75821;DHT22;64454;51.984;9.838;2023-02-11T11:50:24;9.10;99.90
75821;DHT22;64454;51.984;9.838;2023-02-11T11:52:57;9.20;99.90
75821;DHT22;64454;51.984;9.838;2023-02-11T11:55:34;9.20;99.90
75821;DHT22;64454;51.984;9.838;2023-02-11T11:58:09;9.10;99.90
75821;DHT22;64454;51.984;9.838;2023-02-11T12:00:49;9.30;99.90
75821;DHT22;64454;51.984;9.838;2023-02-11T12:03:43;9.40;99.90
75821;DHT22;64454;51.984;9.838;2023-02-11T12:06:37;9.30;99.90
75821;DHT22;64454;51.984;9.838;2023-02-11T12:09:19;9.40;99.90
75821;DHT22;64454;51.984;9.838;2023-02-11T12:12:06;9.40;99.90
75821;DHT22;64454;51.984;9.838;2023-02-11T12:14:53;9.50;99.90
75821;DHT22;64454;51.984;9.838;2023-02-11T12:17:39;9.50;99.90
75821;DHT22;64454;51.984;9.838;2023-02-11T12:20:26;9.60;99.90
75821;DHT22;64454;51.984;9.838;2023-02-11T12:23:20;9.50;99.90
75821;DHT22;64454;51.984;9.838;2023-02-11T12:26:10;9.70;99.90
75821;DHT22;64454;51.984;9.838;2023-02-11T12:28:50;9.70;99.90
75821;DHT22;64454;51.984;9.838;2023-02-11T12:31:35;9.60;99.90
75821;DHT22;64454;51.984;9.838;2023-02-11T12:34:28;9.60;99.90
75821;DHT22;64454;51.984;9.838;2023-02-11T12:37:28;9.60;99.90
75821;DHT22;64454;51.984;9.838;2023-02-11T12:40:12;9.70;99.90
75821;DHT22;64454;51.984;9.838;2023-02-11T12:42:51;9.70;99.90
75821;DHT22;64454;51.984;9.838;2023-02-11T12:45:57;9.70;99.90
75821;DHT22;64454;51.984;9.838;2023-02-11T12:48:42;9.70;99.90
75821;DHT22;64454;51.984;9.838;2023-02-11T12:51:31;9.80;99.90
75821;DHT22;64454;51.984;9.838;2023-02-11T12:54:19;9.80;99.90
75821;DHT22;64454;51.984;9.838;2023-02-11T12:56:58;9.70;99.90
75821;DHT22;64454;51.984;9.838;2023-02-11T12:59:37;9.70;99.90
75821;DHT22;64454;51.984;9.838;2023-02-11T13:02:17;9.70;99.90
75821;DHT22;64454;51.984;9.838;2023-02-11T13:04:51;9.60;99.90
75821;DHT22;64454;51.984;9.838;2023-02-11T13:07:23;9.60;99.90
75821;DHT22;64454;51.984;9.838;2023-02-11T13:10:00;9.50;99.90
75821;DHT22;64454;51.984;9.838;2023-02-11T13:12:34;9.50;99.90
75821;DHT22;64454;51.984;9.838;2023-02-11T13:15:20;9.60;99.90
75821;DHT22;64454;51.984;9.838;2023-02-11T13:17:54;9.50;99.90
75821;DHT22;64454;51.984;9.838;2023-02-11T13:20:31;9.50;99.90
75821;DHT22;64454;51.984;9.838;2023-02-11T13:23:16;9.60;99.90
75821;DHT22;64454;51.984;9.838;2023-02-11T13:25:53;9.60;99.90
75821;DHT22;64454;51.984;9.838;2023-02-11T13:28:34;9.60;99.90
75821;DHT22;64454;51.984;9.838;2023-02-11T13:31:08;9.60;99.90
75821;DHT22;64454;51.984;9.838;2023-02-11T13:33:38;9.70;99.90
75821;DHT22;64454;51.984;9.838;2023-02-11T13:36:21;9.60;99.90
75821;DHT22;64454;51.984;9.838;2023-02-11T13:39:01;9.60;99.90
75821;DHT22;64454;51.984;9.838;2023-02-11T13:41:33;9.50;99.90
75821;DHT22;64454;51.984;9.838;2023-02-11T13:44:17;9.50;99.90
75821;DHT22;64454;51.984;9.838;2023-02-11T13:46:58;9.60;99.90
75821;DHT22;64454;51.984;9.838;2023-02-11T13:49:32;9.60;99.90
75821;DHT22;64454;51.984;9.838;2023-02-11T13:52:15;9.60;99.90
75821;DHT22;64454;51.984;9.838;2023-02-11T13:54:49;9.60;99.90
75821;DHT22;64454;51.984;9.838;2023-02-11T13:57:33;9.60;99.90
75821;DHT22;64454;51.984;9.838;2023-02-11T14:03:21;9.70;99.90
75821;DHT22;64454;51.984;9.838;2023-02-11T14:06:13;9.80;99.90
75821;DHT22;64454;51.984;9.838;2023-02-11T14:09:08;9.90;99.90
75821;DHT22;64454;51.984;9.838;2023-02-11T14:11:52;9.90;99.90
75821;DHT22;64454;51.984;9.838;2023-02-11T14:14:27;9.80;99.90
75821;DHT22;64454;51.984;9.838;2023-02-11T14:17:29;9.80;99.90
75821;DHT22;64454;51.984;9.838;2023-02-11T14:19:58;9.80;99.90
75821;DHT22;64454;51.984;9.838;2023-02-11T14:22:30;9.90;99.90
75821;DHT22;64454;51.984;9.838;2023-02-11T14:25:17;9.90;99.90
75821;DHT22;64454;51.984;9.838;2023-02-11T14:27:51;10.10;99.90
75821;DHT22;64454;51.984;9.838;2023-02-11T14:30:31;10.00;99.90
75821;DHT22;64454;51.984;9.838;2023-02-11T14:33:47;10.20;99.90
75821;DHT22;64454;51.984;9.838;2023-02-11T14:39:31;10.20;99.90
75821;DHT22;64454;51.984;9.838;2023-02-11T14:42:17;10.30;99.90
75821;DHT22;64454;51.984;9.838;2023-02-11T14:44:48;10.30;99.90
75821;DHT22;64454;51.984;9.838;2023-02-11T14:47:19;10.30;99.90
75821;DHT22;64454;51.984;9.838;2023-02-11T14:49:50;10.30;99.90
75821;DHT22;64454;51.984;9.838;2023-02-11T14:52:24;10.30;99.90
75821;DHT22;64454;51.984;9.838;2023-02-11T14:55:01;10.40;99.90
75821;DHT22;64454;51.984;9.838;2023-02-11T14:57:38;10.40;99.90
75821;DHT22;64454;51.984;9.838;2023-02-11T15:00:15;10.40;99.90
75821;DHT22;64454;51.984;9.838;2023-02-11T15:02:46;10.40;99.90
75821;DHT22;64454;51.984;9.838;2023-02-11T15:05:21;10.30;99.90
75821;DHT22;64454;51.984;9.838;2023-02-11T15:07:52;10.30;99.90
75821;DHT22;64454;51.984;9.838;2023-02-11T15:10:27;10.30;99.90
75821;DHT22;64454;51.984;9.838;2023-02-11T15:12:58;10.40;99.90
75821;DHT22;64454;51.984;9.838;2023-02-11T15:15:28;10.40;99.90
75821;DHT22;64454;51.984;9.838;2023-02-11T15:17:58;10.40;99.90
75821;DHT22;64454;51.984;9.838;2023-02-11T15:20:31;10.30;99.90
75821;DHT22;64454;51.984;9.838;2023-02-11T15:23:02;10.30;99.90
75821;DHT22;64454;51.984;9.838;2023-02-11T15:25:32;10.30;99.90
75821;DHT22;64454;51.984;9.838;2023-02-11T15:28:00;10.20;99.90
75821;DHT22;64454;51.984;9.838;2023-02-11T15:30:31;10.20;99.90
75821;DHT22;64454;51.984;9.838;2023-02-11T15:33:00;10.20;99.90
75821;DHT22;64454;51.984;9.838;2023-02-11T15:35:33;10.20;99.90
75821;DHT22;64454;51.984;9.838;2023-02-11T15:38:03;10.30;99.90
75821;DHT22;64454;51.984;9.838;2023-02-11T15:40:32;10.20;99.90
75821;DHT22;64454;51.984;9.838;2023-02-11T15:43:02;10.10;99.90
75821;DHT22;64454;51.984;9.838;2023-02-11T15:45:32;10.10;99.90
75821;DHT22;64454;51.984;9.838;2023-02-11T15:48:07;10.10;99.90
75821;DHT22;64454;51.984;9.838;2023-02-11T15:50:37;9.90;99.90
75821;DHT22;64454;51.984;9.838;2023-02-11T15:53:20;9.90;99.90
75821;DHT22;64454;51.984;9.838;2023-02-11T15:55:51;9.80;99.90
75821;DHT22;64454;51.984;9.838;2023-02-11T15:58:23;9.90;99.90
75821;DHT22;64454;51.984;9.838;2023-02-11T16:00:51;9.90;99.90
75821;DHT22;64454;51.984;9.838;2023-02-11T16:03:26;9.80;99.90
75821;DHT22;64454;51.984;9.838;2023-02-11T16:06:14;9.80;99.90
75821;DHT22;64454;51.984;9.838;2023-02-11T16:08:59;9.80;99.90
75821;DHT22;64454;51.984;9.838;2023-02-11T16:11:30;9.80;99.90
75821;DHT22;64454;51.984;9.838;2023-02-11T16:13:58;9.80;99.90
75821;DHT22;64454;51.984;9.838;2023-02-11T16:16:29;9.80;99.90
75821;DHT22;64454;51.984;9.838;2023-02-11T16:18:59;9.80;99.90
75821;DHT22;64454;51.984;9.838;2023-02-11T16:21:31;9.80;99.90
75821;DHT22;64454;51.984;9.838;2023-02-11T16:24:04;9.80;99.90
75821;DHT22;64454;51.984;9.838;2023-02-11T16:26:35;9.70;99.90
75821;DHT22;64454;51.984;9.838;2023-02-11T16:29:09;9.60;99.90
75821;DHT22;64454;51.984;9.838;2023-02-11T16:31:40;9.60;99.90
75821;DHT22;64454;51.984;9.838;2023-02-11T16:34:14;9.70;99.90
75821;DHT22;64454;51.984;9.838;2023-02-11T16:36:44;9.70;99.90
75821;DHT22;64454;51.984;9.838;2023-02-11T16:39:11;9.60;99.90
75821;DHT22;64454;51.984;9.838;2023-02-11T16:41:38;9.60;99.90